Carsonville, Michigan
Current Conditions -  °F | °C
As of 4:19 AM on Saturday 01 Nov 2014 (Local Time) from KBAX Reporting Station
Light Snow Light Snow  
Wind Chill: 22°   Ceiling: 1700
Heat Index: 32°   Visibility: 3mi
Dew Point: 30°   Wind: 15mph
Humidity: 92%   Direction: 360°N
Pressure: 30.23"   Gusts: 22mph
Location:  43.43°N, 82.67°W
Report Text: KBAX 010819Z AUTO 36013G19KT 3SM -SN SCT010 BKN017 OVC028 00/M01 A3023 RMK AO2 T00001011
Loading
Personal Weather Stations






























Interactive Weather Map
Tropical Storm Tracking
New forecast layout! Learn more

10-Day Weather Forecast

Advertisements
Track Severe Weather on mobile